Time;durP1;ratioP1;P1;durP2;ratioP2;P2;SDS_P1;SDS_P2;PMS_P1;PMS_P2;Temp;Humidity;BMP_temperature;BMP_pressure;BME280_temperature;BME280_humidity;BME280_pressure;Samples;Min_cycle;Max_cycle;Signal;HPM_P1;HPM_P2
2021/01/07 00:03:15;;;;;;;13.75;5.72;;;3.50;84.80;;;;;;4956249;29;20034;-79
2021/01/07 00:09:02;;;;;;;14.73;6.07;;;3.60;85.20;;;;;;4956224;29;20443;-78
2021/01/07 00:14:50;;;;;;;12.13;5.13;;;3.60;84.60;;;;;;4956168;29;20038;-79
2021/01/07 00:20:37;;;;;;;13.80;5.50;;;3.50;84.80;;;;;;4955990;29;20066;-79
2021/01/07 00:26:25;;;;;;;11.77;4.78;;;3.50;84.50;;;;;;4955856;29;20058;-80
2021/01/07 00:32:12;;;;;;;15.40;5.80;;;3.50;84.80;;;;;;4955799;29;20021;-80
2021/01/07 00:38:00;;;;;;;12.15;4.30;;;3.50;84.90;;;;;;4955568;29;20097;-79
2021/01/07 00:43:48;;;;;;;17.50;5.35;;;3.50;84.40;;;;;;4959768;29;20110;-80
2021/01/07 00:49:36;;;;;;;12.45;4.70;;;3.50;84.50;;;;;;4959711;29;20037;-80
2021/01/07 00:55:23;;;;;;;12.30;4.70;;;3.40;84.40;;;;;;4959471;29;20086;-80
2021/01/07 01:01:11;;;;;;;15.57;5.70;;;3.40;84.60;;;;;;4959483;29;20029;-80
2021/01/07 01:06:58;;;;;;;12.85;5.40;;;3.30;84.50;;;;;;4959076;29;20518;-80
2021/01/07 01:16:35;;;;;;;16.52;6.32;;;3.40;84.80;;;;;;4959324;29;20062;-80
2021/01/07 01:22:22;;;;;;;14.70;6.03;;;3.40;84.90;;;;;;4959081;29;20031;-80
2021/01/07 01:28:10;;;;;;;5.10;2.30;;;3.30;84.60;;;;;;4958898;29;20054;-80
2021/01/07 01:33:57;;;;;;;13.93;4.85;;;3.40;84.70;;;;;;4958648;29;20027;-79
2021/01/07 01:39:44;;;;;;;11.50;4.45;;;3.30;84.80;;;;;;4958913;29;20470;-79
2021/01/07 01:45:32;;;;;;;16.25;6.50;;;3.30;84.40;;;;;;4958764;29;20050;-79
2021/01/07 01:51:19;;;;;;;15.32;5.97;;;3.30;84.70;;;;;;4958295;28;20106;-80
2021/01/07 01:57:08;;;;;;;13.05;4.70;;;3.30;84.80;;;;;;4958511;29;20031;-80
2021/01/07 02:02:56;;;;;;;12.25;4.47;;;3.20;84.10;;;;;;4958128;29;20037;-80
2021/01/07 02:08:48;;;;;;;8.60;3.65;;;3.10;84.50;;;;;;4958370;29;20060;-80
2021/01/07 02:14:40;;;;;;;5.75;2.67;;;3.00;84.20;;;;;;4956273;28;20082;-80
2021/01/07 02:20:28;;;;;;;11.25;3.90;;;2.80;84.00;;;;;;4958107;29;20037;-80
2021/01/07 02:26:16;;;;;;;5.18;2.22;;;2.60;84.00;;;;;;4957626;29;20127;-80
2021/01/07 02:32:07;;;;;;;9.30;3.58;;;2.60;84.50;;;;;;4957942;29;20034;-79
2021/01/07 02:37:54;;;;;;;10.60;4.25;;;2.60;84.60;;;;;;4959105;29;20034;-79
2021/01/07 02:43:42;;;;;;;10.30;3.75;;;2.60;84.60;;;;;;4961617;29;20398;-79
2021/01/07 02:49:29;;;;;;;9.25;3.65;;;2.60;84.60;;;;;;4957572;29;20030;-80
2021/01/07 02:55:17;;;;;;;6.72;2.72;;;2.60;84.60;;;;;;4957198;29;20402;-79
2021/01/07 03:01:04;;;;;;;10.38;4.18;;;2.60;84.50;;;;;;4957284;29;20038;-79
2021/01/07 03:06:52;;;;;;;12.38;5.13;;;2.60;84.70;;;;;;4957213;29;20042;-79
2021/01/07 03:12:39;;;;;;;3.45;1.40;;;2.60;84.80;;;;;;4957209;29;20031;-79
2021/01/07 03:18:27;;;;;;;11.88;4.60;;;2.60;84.60;;;;;;4957165;29;20074;-78
2021/01/07 03:24:16;;;;;;;12.43;4.88;;;2.60;84.50;;;;;;4956855;29;20596;-79
2021/01/07 03:30:05;;;;;;;14.35;5.85;;;2.50;84.50;;;;;;4956792;29;20094;-78
2021/01/07 03:35:53;;;;;;;11.85;4.75;;;2.60;84.70;;;;;;4956688;29;20094;-79
2021/01/07 03:41:42;;;;;;;15.88;5.22;;;2.60;84.80;;;;;;4956639;29;20066;-80
2021/01/07 03:47:29;;;;;;;14.57;5.28;;;2.60;84.60;;;;;;4956207;29;20054;-79
2021/01/07 03:53:17;;;;;;;11.10;4.35;;;2.60;84.60;;;;;;4956514;29;20035;-80
2021/01/07 03:59:04;;;;;;;6.50;2.55;;;2.60;84.90;;;;;;4956337;29;20042;-79
2021/01/07 04:04:52;;;;;;;14.95;5.65;;;2.60;84.70;;;;;;4956217;29;20085;-79
2021/01/07 04:10:42;;;;;;;12.63;5.18;;;2.60;84.60;;;;;;4955883;29;20038;-80
2021/01/07 04:20:17;;;;;;;13.85;6.07;;;2.60;84.80;;;;;;4956031;29;20090;-79
2021/01/07 04:26:05;;;;;;;20.98;8.10;;;2.60;84.70;;;;;;4955789;29;20046;-80
2021/01/07 04:31:53;;;;;;;10.02;4.32;;;2.60;84.80;;;;;;4955801;29;20123;-80
2021/01/07 04:37:40;;;;;;;6.82;2.67;;;2.60;84.70;;;;;;4955808;29;20039;-80
2021/01/07 04:43:28;;;;;;;3.33;1.85;;;2.60;84.60;;;;;;4955939;29;20062;-80
2021/01/07 04:49:16;;;;;;;6.80;3.22;;;2.50;84.90;;;;;;4956071;29;20130;-80
2021/01/07 04:55:04;;;;;;;18.48;6.60;;;2.60;85.00;;;;;;4955713;29;20045;-80
2021/01/07 05:00:52;;;;;;;13.05;5.03;;;2.60;84.80;;;;;;4955686;29;20095;-80
2021/01/07 05:06:39;;;;;;;6.97;3.63;;;2.70;84.90;;;;;;4955225;29;20055;-80
2021/01/07 05:12:27;;;;;;;17.85;6.60;;;2.70;84.70;;;;;;4955448;29;20054;-80
2021/01/07 05:18:15;;;;;;;13.75;6.22;;;2.70;85.00;;;;;;4953565;28;20511;-80
2021/01/07 05:24:03;;;;;;;18.20;7.75;;;2.70;84.60;;;;;;4955698;29;20030;-80
2021/01/07 05:29:51;;;;;;;15.50;6.65;;;2.70;84.80;;;;;;4966046;29;20087;-79
2021/01/07 05:35:38;;;;;;;15.93;7.90;;;2.60;84.60;;;;;;4958870;29;20041;-80
2021/01/07 05:41:28;;;;;;;16.83;6.68;;;2.70;84.80;;;;;;4958899;29;20510;-80
2021/01/07 05:47:29;;;;;;;18.35;7.40;;;2.70;85.00;;;;;;4958711;29;20122;-79
2021/01/07 05:53:19;;;;;;;14.25;5.38;;;2.70;84.80;;;;;;4958613;29;20090;-80
2021/01/07 05:59:08;;;;;;;10.18;3.03;;;2.70;84.90;;;;;;4958719;29;20042;-80
2021/01/07 06:05:01;;;;;;;17.33;7.07;;;2.70;84.50;;;;;;4958318;29;20090;-80
2021/01/07 06:10:53;;;;;;;13.93;5.57;;;2.70;84.60;;;;;;4958156;29;20034;-80
2021/01/07 06:16:43;;;;;;;20.60;8.00;;;2.60;84.50;;;;;;4958139;29;20486;-82
2021/01/07 06:22:31;;;;;;;18.75;8.73;;;2.60;84.80;;;;;;4958271;29;20069;-88
2021/01/07 06:28:26;;;;;;;16.88;7.50;;;2.60;84.80;;;;;;4958410;29;20403;-83
2021/01/07 06:34:14;;;;;;;12.52;5.18;;;2.70;84.90;;;;;;4958164;29;20119;-83
2021/01/07 06:40:43;;;;;;;13.35;6.13;;;2.70;84.70;;;;;;4958740;29;20050;-91
2021/01/07 06:46:43;;;;;;;21.05;8.65;;;2.60;84.50;;;;;;4957999;29;20102;-87
2021/01/07 06:52:43;;;;;;;19.48;8.25;;;2.60;84.90;;;;;;4957554;29;20030;-87
2021/01/07 06:58:32;;;;;;;16.02;6.15;;;2.60;84.80;;;;;;4957496;29;20503;-85
2021/01/07 07:04:25;;;;;;;19.30;7.97;;;2.60;84.70;;;;;;4957253;29;20034;-84
2021/01/07 07:10:18;;;;;;;10.30;4.55;;;2.60;84.50;;;;;;4957157;29;20033;-87
2021/01/07 07:16:07;;;;;;;13.32;5.85;;;2.60;84.80;;;;;;4957237;29;20042;-86
2021/01/07 07:22:03;;;;;;;20.73;8.95;;;2.60;84.60;;;;;;4956974;29;20070;-84
2021/01/07 07:27:55;;;;;;;20.98;8.48;;;2.50;84.50;;;;;;4956549;29;20455;-86
2021/01/07 07:33:43;;;;;;;14.82;6.45;;;2.50;84.80;;;;;;4956912;29;20392;-85
2021/01/07 07:39:33;;;;;;;20.55;8.68;;;2.60;84.80;;;;;;4956502;29;20115;-86
2021/01/07 07:53:22;;;;;;;7.00;3.50;;;2.60;84.60;;;;;;4897203;29;20035;-84
2021/01/07 07:59:15;;;;;;;20.48;8.45;;;2.60;84.80;;;;;;4842613;29;20537;-86
2021/01/07 08:05:02;;;;;;;16.48;6.40;;;2.60;85.00;;;;;;4922721;29;20034;-86
2021/01/07 08:10:51;;;;;;;18.20;7.60;;;2.70;84.80;;;;;;4956264;29;20491;-86
2021/01/07 08:17:20;;;;;;;20.08;9.35;;;2.70;84.90;;;;;;4962270;29;20030;-87
2021/01/07 08:23:14;;;;;;;20.08;8.68;;;2.80;84.70;;;;;;4878520;29;20081;-86
2021/01/07 08:29:01;;;;;;;15.15;5.82;;;2.90;84.90;;;;;;4899553;29;20050;-87
2021/01/07 08:34:50;;;;;;;24.50;9.93;;;2.80;84.60;;;;;;4955732;29;20034;-84
2021/01/07 08:40:38;;;;;;;25.25;10.45;;;2.80;84.90;;;;;;4957215;29;20451;-93
2021/01/07 08:46:41;;;;;;;19.10;8.68;;;3.00;85.20;;;;;;4966834;29;20049;-95
2021/01/07 08:52:28;;;;;;;17.60;8.48;;;3.00;85.10;;;;;;4957259;29;20050;-88
2021/01/07 08:58:24;;;;;;;19.77;8.02;;;3.00;84.50;;;;;;4956432;29;20066;-90
2021/01/07 09:04:32;;;;;;;19.35;8.68;;;3.00;85.00;;;;;;4960077;29;20061;-91
2021/01/07 09:10:26;;;;;;;23.60;8.77;;;3.10;84.80;;;;;;4961251;29;20406;-92
2021/01/07 09:16:16;;;;;;;21.42;9.20;;;3.20;85.00;;;;;;4963801;29;20030;-92
2021/01/07 09:22:22;;;;;;;18.40;8.45;;;3.30;85.70;;;;;;4960015;29;20415;-91
2021/01/07 09:28:10;;;;;;;22.38;9.65;;;3.40;85.40;;;;;;4960034;29;20507;-90
2021/01/07 09:33:57;;;;;;;18.55;9.13;;;3.50;85.30;;;;;;4959680;29;20094;-89
2021/01/07 09:39:47;;;;;;;20.20;8.70;;;3.60;85.20;;;;;;4960763;29;20033;-91
2021/01/07 09:45:35;;;;;;;20.73;9.13;;;3.60;85.00;;;;;;4964318;29;20034;-89
2021/01/07 09:51:24;;;;;;;13.45;5.35;;;3.60;84.80;;;;;;4958927;29;20034;-89
2021/01/07 09:57:12;;;;;;;20.88;9.43;;;3.50;84.60;;;;;;4959113;29;20087;-90
2021/01/07 10:03:00;;;;;;;19.20;8.80;;;3.50;85.40;;;;;;4960766;29;20070;-88
2021/01/07 10:08:48;;;;;;;14.45;6.28;;;3.70;85.40;;;;;;4959228;29;20042;-92
2021/01/07 10:14:36;;;;;;;17.23;8.05;;;3.80;84.90;;;;;;4958192;28;20034;-90
2021/01/07 10:24:27;;;;;;;16.48;7.68;;;3.70;85.00;;;;;;4958944;29;20046;-90
2021/01/07 10:30:16;;;;;;;16.17;7.72;;;3.70;85.20;;;;;;4959611;29;20071;-89
2021/01/07 10:36:04;;;;;;;16.85;6.88;;;3.80;85.50;;;;;;4958000;29;20090;-88
2021/01/07 10:41:55;;;;;;;17.92;8.50;;;4.00;85.40;;;;;;4958211;29;20042;-90
2021/01/07 10:47:45;;;;;;;15.77;6.57;;;4.00;84.90;;;;;;4939033;29;20415;-93
2021/01/07 10:54:14;;;;;;;17.17;7.07;;;3.90;84.60;;;;;;4939679;29;20055;-92
2021/01/07 11:00:09;;;;;;;17.98;8.38;;;3.80;84.60;;;;;;4940050;29;20042;-92
2021/01/07 11:06:02;;;;;;;18.92;8.85;;;3.80;84.50;;;;;;4943694;29;20047;-89
2021/01/07 11:11:52;;;;;;;14.98;7.70;;;3.70;84.90;;;;;;4941533;29;20078;-91
2021/01/07 11:17:46;;;;;;;12.70;6.28;;;3.70;84.90;;;;;;4939204;29;20031;-92
2021/01/07 11:27:36;;;;;;;17.33;6.97;;;3.70;84.80;;;;;;4959266;29;20079;-92
2021/01/07 11:33:25;;;;;;;18.17;8.75;;;3.70;84.60;;;;;;4960724;29;20026;-94
2021/01/07 11:39:18;;;;;;;21.45;11.20;;;3.80;85.20;;;;;;4958050;29;20057;-93
2021/01/07 11:45:19;;;;;;;15.35;6.53;;;3.80;84.60;;;;;;4959633;29;20042;-93
2021/01/07 11:51:11;;;;;;;16.60;8.55;;;3.90;85.30;;;;;;4958039;29;20030;-94
2021/01/07 11:56:59;;;;;;;9.52;3.40;;;3.90;84.50;;;;;;4957435;29;20607;-89
2021/01/07 12:02:49;;;;;;;3.97;2.35;;;3.90;84.60;;;;;;4957098;29;20094;-90
2021/01/07 12:09:15;;;;;;;15.98;6.75;;;3.80;84.80;;;;;;4957197;29;20043;-90
2021/01/07 12:15:04;;;;;;;13.45;5.63;;;4.00;84.70;;;;;;4956907;29;20037;-89
2021/01/07 12:20:53;;;;;;;18.45;6.90;;;3.90;84.50;;;;;;4956685;29;20090;-88
2021/01/07 12:30:49;;;;;;;17.40;7.97;;;4.20;85.50;;;;;;4957607;29;20046;-92
2021/01/07 12:37:08;;;;;;;15.57;6.93;;;4.50;86.00;;;;;;4957866;29;20086;-93
2021/01/07 12:46:22;;;;;;;12.13;4.50;;;4.70;85.80;;;;;;4955912;29;20448;-88
2021/01/07 12:52:10;;;;;;;16.55;7.18;;;4.80;85.20;;;;;;4956434;29;20042;-92
2021/01/07 12:58:13;;;;;;;14.55;6.55;;;4.90;84.40;;;;;;4957258;29;20050;-87
2021/01/07 13:04:21;;;;;;;18.92;8.20;;;4.80;84.70;;;;;;4956459;29;20027;-91
2021/01/07 13:10:10;;;;;;;14.27;6.32;;;4.80;84.80;;;;;;4956039;29;20078;-88
2021/01/07 13:15:58;;;;;;;9.02;3.05;;;4.70;83.80;;;;;;4956283;29;20526;-91
2021/01/07 13:21:48;;;;;;;13.77;6.00;;;4.40;83.80;;;;;;4955987;29;20102;-91
2021/01/07 13:31:12;;;;;;;14.85;6.18;;;4.40;84.20;;;;;;4956159;29;20078;-88
2021/01/07 13:37:00;;;;;;;13.85;6.50;;;4.40;84.40;;;;;;4957118;29;20030;-93
2021/01/07 13:42:49;;;;;;;10.35;4.90;;;4.30;83.80;;;;;;4961192;29;20030;-91
2021/01/07 13:48:40;;;;;;;10.07;3.88;;;4.40;84.40;;;;;;4957355;28;20062;-90
2021/01/07 13:54:29;;;;;;;12.52;5.43;;;4.30;84.00;;;;;;4966651;29;20027;-90
2021/01/07 14:00:17;;;;;;;10.52;4.45;;;5.10;85.50;;;;;;4960849;29;20059;-90
2021/01/07 14:06:06;;;;;;;12.90;4.82;;;4.70;83.00;;;;;;4959453;29;20054;-92
2021/01/07 14:11:59;;;;;;;9.27;3.72;;;4.40;82.90;;;;;;4958757;29;20400;-90
2021/01/07 14:17:48;;;;;;;8.30;3.55;;;5.10;87.60;;;;;;4959423;29;20038;-91
2021/01/07 14:23:35;;;;;;;10.95;5.18;;;5.90;86.20;;;;;;4958942;29;20391;-91
2021/01/07 14:29:34;;;;;;;9.70;3.50;;;6.40;85.40;;;;;;4957188;28;20514;-91
2021/01/07 14:35:22;;;;;;;10.50;4.28;;;6.10;82.30;;;;;;4958846;29;20042;-91
2021/01/07 14:41:10;;;;;;;8.73;3.47;;;5.50;82.20;;;;;;4960955;29;20060;-91
2021/01/07 14:47:02;;;;;;;12.18;4.88;;;5.00;82.40;;;;;;4958946;29;20043;-91
2021/01/07 14:53:16;;;;;;;11.98;5.10;;;4.70;82.80;;;;;;4958891;29;20055;-91
2021/01/07 14:59:24;;;;;;;10.05;4.05;;;4.50;83.00;;;;;;4958910;28;20050;-87
2021/01/07 15:05:20;;;;;;;6.30;2.90;;;4.20;82.70;;;;;;4957355;29;20090;-81
2021/01/07 15:11:13;;;;;;;14.02;5.43;;;3.90;82.80;;;;;;4957232;29;20086;-81
2021/01/07 15:17:06;;;;;;;12.15;5.63;;;3.80;83.70;;;;;;4957134;29;20037;-81
2021/01/07 15:22:59;;;;;;;14.40;5.97;;;3.70;83.30;;;;;;4956906;29;20043;-81
2021/01/07 15:29:00;;;;;;;12.18;5.25;;;3.60;83.40;;;;;;4956532;28;20102;-81
2021/01/07 15:34:57;;;;;;;4.18;2.20;;;3.60;83.70;;;;;;4956735;29;20120;-81
2021/01/07 15:41:42;;;;;;;13.75;5.32;;;3.50;83.40;;;;;;4956533;29;20118;-84
2021/01/07 15:47:44;;;;;;;11.18;5.22;;;3.40;83.40;;;;;;4878530;29;20112;-82
2021/01/07 15:54:07;;;;;;;13.13;4.93;;;3.30;83.30;;;;;;4956402;29;20026;-83
2021/01/07 16:00:03;;;;;;;3.33;1.83;;;3.40;83.70;;;;;;4879147;29;20053;-82
2021/01/07 16:05:55;;;;;;;12.63;5.05;;;3.20;82.90;;;;;;4956390;29;20062;-81
2021/01/07 16:11:44;;;;;;;13.35;5.35;;;3.10;83.20;;;;;;4955709;28;20051;-81
2021/01/07 16:17:33;;;;;;;11.85;5.13;;;3.00;82.80;;;;;;4956208;29;20483;-81
2021/01/07 16:23:24;;;;;;;10.82;4.43;;;2.80;83.00;;;;;;4956300;29;20087;-82
2021/01/07 16:29:13;;;;;;;11.80;4.50;;;2.70;82.50;;;;;;4955854;29;20070;-80
2021/01/07 16:35:02;;;;;;;16.38;6.10;;;2.50;82.10;;;;;;4955883;29;20041;-83
2021/01/07 16:40:55;;;;;;;11.43;4.70;;;2.30;82.70;;;;;;4960801;29;20029;-82
2021/01/07 16:46:43;;;;;;;15.30;6.15;;;2.30;82.70;;;;;;4955559;29;20603;-81
2021/01/07 16:52:30;;;;;;;12.23;6.05;;;2.30;82.90;;;;;;4955385;29;20498;-81
2021/01/07 16:58:18;;;;;;;5.85;2.35;;;2.30;83.00;;;;;;4955555;29;20522;-81
2021/01/07 17:04:05;;;;;;;13.60;5.88;;;2.30;83.20;;;;;;4955492;29;20102;-82
2021/01/07 17:09:56;;;;;;;13.52;5.25;;;2.30;83.00;;;;;;4955675;29;20058;-80
2021/01/07 17:15:44;;;;;;;16.73;7.05;;;2.30;83.00;;;;;;4955325;29;20030;-79
2021/01/07 17:21:32;;;;;;;13.00;5.45;;;2.30;83.10;;;;;;4955139;29;20050;-78
2021/01/07 17:27:19;;;;;;;4.22;2.08;;;2.30;83.10;;;;;;4958566;29;20109;-79
2021/01/07 17:33:07;;;;;;;10.20;4.65;;;2.30;83.10;;;;;;4959033;29;20027;-79
2021/01/07 17:38:55;;;;;;;13.68;5.47;;;2.30;83.00;;;;;;4958946;29;20063;-85
2021/01/07 17:44:43;;;;;;;10.23;4.50;;;2.30;83.20;;;;;;4959424;29;20387;-87
2021/01/07 17:50:30;;;;;;;19.42;7.20;;;2.30;83.10;;;;;;4960156;29;20034;-88
2021/01/07 17:56:23;;;;;;;16.50;6.57;;;2.30;83.40;;;;;;4958912;28;20065;-87
2021/01/07 18:02:12;;;;;;;10.13;3.95;;;2.30;82.90;;;;;;4959499;29;20071;-87
2021/01/07 18:08:00;;;;;;;21.30;9.48;;;2.30;83.20;;;;;;4965988;29;20107;-89
2021/01/07 18:13:47;;;;;;;16.02;6.63;;;2.30;83.00;;;;;;4959821;29;20491;-90
2021/01/07 18:19:35;;;;;;;12.05;5.40;;;2.30;83.20;;;;;;4961845;29;20087;-89
2021/01/07 18:25:23;;;;;;;14.75;6.05;;;2.30;83.10;;;;;;4960623;29;20038;-91
2021/01/07 18:31:16;;;;;;;16.50;7.40;;;2.30;83.20;;;;;;4956983;28;20098;-91
2021/01/07 18:37:04;;;;;;;13.63;6.00;;;2.30;83.00;;;;;;4960134;29;20086;-89
2021/01/07 18:42:51;;;;;;;19.10;8.35;;;2.40;83.30;;;;;;4957614;29;20030;-81
2021/01/07 18:48:40;;;;;;;12.70;6.18;;;2.40;83.00;;;;;;4957779;29;20062;-81
2021/01/07 18:54:27;;;;;;;3.47;2.08;;;2.40;83.00;;;;;;4957316;29;20156;-80
2021/01/07 19:00:15;;;;;;;14.50;4.22;;;2.30;82.80;;;;;;4957521;29;20086;-80
2021/01/07 19:06:05;;;;;;;15.00;6.20;;;2.30;83.00;;;;;;4957667;29;20502;-80
2021/01/07 19:11:53;;;;;;;11.18;4.03;;;2.30;83.00;;;;;;4957201;29;20089;-81
2021/01/07 19:17:41;;;;;;;14.75;5.97;;;2.40;83.20;;;;;;4957098;29;20027;-80
2021/01/07 19:23:32;;;;;;;15.45;6.47;;;2.40;83.10;;;;;;4957363;29;20170;-79
2021/01/07 19:29:21;;;;;;;13.68;5.65;;;2.30;83.30;;;;;;4960213;29;20038;-80
2021/01/07 19:35:10;;;;;;;10.77;4.50;;;2.30;82.80;;;;;;4956857;29;20086;-79
2021/01/07 19:40:57;;;;;;;14.65;6.07;;;2.30;82.80;;;;;;4956814;29;20135;-80
2021/01/07 19:46:45;;;;;;;14.27;6.35;;;2.30;83.00;;;;;;4955896;28;20059;-79
2021/01/07 19:52:33;;;;;;;12.27;5.43;;;2.30;82.70;;;;;;4956464;29;20082;-80
2021/01/07 19:58:21;;;;;;;6.95;3.22;;;2.30;82.80;;;;;;4956661;29;20383;-79
2021/01/07 20:04:11;;;;;;;13.52;6.20;;;2.20;82.70;;;;;;4959124;29;20034;-80
2021/01/07 20:09:59;;;;;;;14.82;6.07;;;2.20;83.10;;;;;;4959760;29;20062;-80
2021/01/07 20:15:46;;;;;;;7.75;3.65;;;2.20;82.70;;;;;;4956581;29;20026;-81
2021/01/07 20:21:38;;;;;;;13.82;5.90;;;2.10;82.80;;;;;;4955967;29;20167;-81
2021/01/07 20:27:25;;;;;;;9.48;4.22;;;2.10;82.70;;;;;;4955731;29;20042;-80
2021/01/07 20:37:01;;;;;;;12.10;5.20;;;2.10;82.70;;;;;;4955854;29;20034;-82
2021/01/07 20:42:57;;;;;;;14.15;5.97;;;2.10;82.80;;;;;;4955917;29;20029;-80
2021/01/07 20:48:44;;;;;;;12.45;5.03;;;2.10;82.90;;;;;;4955851;29;20102;-80
2021/01/07 20:54:32;;;;;;;14.85;6.35;;;2.20;83.10;;;;;;4955809;29;20515;-80
2021/01/07 21:00:20;;;;;;;12.70;5.15;;;2.20;83.00;;;;;;4959639;29;20053;-80
2021/01/07 21:06:15;;;;;;;13.30;6.05;;;2.10;82.70;;;;;;4959951;29;20572;-80
2021/01/07 21:12:03;;;;;;;15.85;6.20;;;2.20;82.80;;;;;;4959676;29;20502;-80
2021/01/07 21:17:51;;;;;;;15.43;6.45;;;2.20;82.90;;;;;;4959411;29;20427;-80
2021/01/07 21:23:38;;;;;;;9.43;4.22;;;2.20;82.80;;;;;;4959386;29;20066;-79
2021/01/07 21:29:26;;;;;;;14.40;6.47;;;2.10;82.60;;;;;;4959199;29;20123;-81
2021/01/07 21:39:08;;;;;;;13.20;5.45;;;2.10;82.70;;;;;;4958756;29;20049;-80
2021/01/07 21:44:56;;;;;;;13.20;5.70;;;2.10;82.70;;;;;;4959056;29;20074;-80
2021/01/07 21:50:44;;;;;;;12.27;5.72;;;2.10;82.90;;;;;;4959536;29;20086;-81
2021/01/07 21:56:31;;;;;;;13.93;5.70;;;2.10;82.60;;;;;;4959054;29;20037;-81
2021/01/07 22:02:21;;;;;;;16.77;6.60;;;2.10;82.70;;;;;;4958889;29;20443;-81
2021/01/07 22:08:08;;;;;;;12.02;4.82;;;2.10;82.70;;;;;;4958370;28;20445;-81
2021/01/07 22:13:55;;;;;;;13.20;5.63;;;2.10;82.70;;;;;;4958646;29;20083;-80
2021/01/07 22:19:43;;;;;;;16.50;6.22;;;2.10;82.80;;;;;;4961715;29;20118;-80
2021/01/07 22:25:31;;;;;;;13.77;5.55;;;2.10;82.70;;;;;;4958171;29;20034;-80
2021/01/07 22:31:24;;;;;;;13.45;5.25;;;2.10;82.80;;;;;;4958616;29;20090;-80
2021/01/07 22:41:10;;;;;;;15.50;6.18;;;2.00;82.40;;;;;;4957928;29;20078;-81
2021/01/07 22:46:57;;;;;;;13.43;5.30;;;1.90;82.40;;;;;;4957654;29;20070;-81
2021/01/07 22:52:45;;;;;;;7.85;3.63;;;2.00;82.70;;;;;;4957666;29;20026;-81
2021/01/07 22:58:32;;;;;;;13.88;4.13;;;2.00;82.70;;;;;;4957530;29;20119;-81
2021/01/07 23:04:20;;;;;;;14.45;5.53;;;2.00;82.80;;;;;;4957749;29;20033;-81
2021/01/07 23:10:10;;;;;;;15.40;5.72;;;2.00;82.80;;;;;;4957300;29;20106;-82
2021/01/07 23:15:57;;;;;;;14.45;6.38;;;2.00;83.10;;;;;;4957332;29;20038;-82
2021/01/07 23:21:45;;;;;;;14.30;6.63;;;2.00;82.80;;;;;;4957113;28;20042;-81
2021/01/07 23:27:33;;;;;;;14.15;5.32;;;2.00;82.80;;;;;;4956804;29;20129;-82
2021/01/07 23:33:20;;;;;;;14.38;5.90;;;2.10;83.00;;;;;;4956879;29;20030;-82
2021/01/07 23:43:01;;;;;;;8.93;3.75;;;2.10;82.50;;;;;;4956818;29;20041;-81
2021/01/07 23:48:49;;;;;;;12.27;5.03;;;2.00;82.80;;;;;;4956675;29;20364;-82
2021/01/07 23:54:37;;;;;;;16.25;6.43;;;2.00;82.50;;;;;;4956440;29;20030;-81
